Time;durP1;ratioP1;P1;durP2;ratioP2;P2;SDS_P1;SDS_P2;PMS_P1;PMS_P2;Temp;Humidity;BMP_temperature;BMP_pressure;BME280_temperature;BME280_humidity;BME280_pressure;Samples;Min_cycle;Max_cycle;Signal;HPM_P1;HPM_P2
2022/04/03 00:00:57;;;;;;;8.65;4.90;;;;;;;3.08;56.68;100895.56;4170690;28;20041;-68
2022/04/03 00:03:02;;;;;;;9.93;5.85;;;;;;;3.14;56.07;100893.31;4162842;28;20033;-68
2022/04/03 00:05:06;;;;;;;8.57;5.35;;;;;;;3.01;56.69;100900.28;4160963;28;20037;-68
2022/04/03 00:07:10;;;;;;;8.68;5.35;;;;;;;2.95;57.23;100896.63;4163501;28;20495;-68
2022/04/03 00:09:13;;;;;;;7.97;5.47;;;;;;;2.99;56.76;100909.63;4162502;28;20069;-67
2022/04/03 00:11:17;;;;;;;10.00;5.55;;;;;;;3.04;57.02;100903.00;4162097;28;20044;-68
2022/04/03 00:13:19;;;;;;;9.75;5.43;;;;;;;3.20;56.16;100905.59;4176952;28;20071;-67
2022/04/03 00:15:22;;;;;;;9.13;5.50;;;;;;;3.12;56.21;100907.75;4164143;28;20507;-67
2022/04/03 00:17:27;;;;;;;9.50;5.45;;;;;;;3.16;56.73;100907.94;4158543;28;20494;-67
2022/04/03 00:19:30;;;;;;;8.75;5.72;;;;;;;3.11;56.47;100905.09;4165348;28;20041;-68
2022/04/03 00:21:33;;;;;;;8.63;4.85;;;;;;;3.18;56.60;100911.44;4165886;28;20041;-68
2022/04/03 00:23:36;;;;;;;10.80;5.80;;;;;;;3.10;56.62;100904.22;4163397;28;20132;-67
2022/04/03 00:25:39;;;;;;;6.82;4.85;;;;;;;3.19;55.50;100903.81;4164059;28;20477;-67
2022/04/03 00:27:42;;;;;;;8.65;5.32;;;;;;;3.02;55.90;100910.63;4165391;28;20061;-67
2022/04/03 00:29:45;;;;;;;9.98;5.15;;;;;;;3.10;56.75;100908.50;4165832;28;20541;-68
2022/04/03 00:31:48;;;;;;;7.40;4.43;;;;;;;3.02;57.02;100904.63;4163069;28;20399;-67
2022/04/03 00:33:53;;;;;;;9.10;4.93;;;;;;;3.04;56.82;100906.47;4164974;28;20445;-67
2022/04/03 00:35:56;;;;;;;8.40;4.97;;;;;;;3.12;56.59;100902.59;4164722;28;20050;-67
2022/04/03 00:37:59;;;;;;;8.10;5.07;;;;;;;3.04;56.85;100903.91;4164432;28;20044;-67
2022/04/03 00:40:02;;;;;;;7.75;5.00;;;;;;;3.03;56.89;100912.41;4165261;28;20065;-67
2022/04/03 00:42:07;;;;;;;6.85;4.88;;;;;;;3.19;56.04;100913.22;4164584;28;20030;-67
2022/04/03 00:44:11;;;;;;;9.10;5.25;;;;;;;3.08;56.34;100921.25;4163785;28;20057;-67
2022/04/03 00:46:19;;;;;;;9.18;5.22;;;;;;;3.10;56.66;100919.63;4163675;28;20403;-67
2022/04/03 00:48:23;;;;;;;7.65;4.75;;;;;;;3.26;55.69;100910.16;4165708;28;20041;-67
2022/04/03 00:50:27;;;;;;;7.53;4.65;;;;;;;3.11;56.23;100911.13;4163731;28;20522;-67
2022/04/03 00:52:30;;;;;;;8.38;5.22;;;;;;;3.10;56.41;100914.50;4163156;28;20416;-67
2022/04/03 00:54:33;;;;;;;9.23;5.32;;;;;;;3.19;56.34;100913.22;4164665;28;20047;-66
2022/04/03 00:56:37;;;;;;;7.45;4.93;;;;;;;3.01;55.95;100916.59;4162341;28;20097;-66
2022/04/03 00:58:40;;;;;;;11.80;4.68;;;;;;;2.98;57.15;100919.00;4163440;28;20304;-67
2022/04/03 01:00:43;;;;;;;7.60;4.95;;;;;;;3.06;56.80;100920.28;4165203;28;20069;-67
2022/04/03 01:02:47;;;;;;;7.00;4.53;;;;;;;3.00;57.01;100917.41;4164739;28;20445;-67
2022/04/03 01:04:50;;;;;;;7.32;4.13;;;;;;;3.00;56.96;100922.53;4163654;28;20038;-67
2022/04/03 01:06:54;;;;;;;7.47;4.55;;;;;;;3.06;56.90;100921.97;4160243;28;20099;-67
2022/04/03 01:08:59;;;;;;;8.10;5.75;;;;;;;3.10;56.87;100921.34;4164368;28;20044;-67
2022/04/03 01:11:02;;;;;;;10.52;4.75;;;;;;;3.16;56.91;100920.78;4164263;28;20060;-67
2022/04/03 01:13:05;;;;;;;7.88;4.28;;;;;;;3.20;56.01;100926.13;4177794;28;20047;-66
2022/04/03 01:15:09;;;;;;;8.07;4.45;;;;;;;3.10;56.43;100924.78;4160971;28;20101;-67
2022/04/03 01:17:14;;;;;;;8.63;4.68;;;;;;;3.08;56.42;100921.25;4163661;28;20091;-67
2022/04/03 01:19:16;;;;;;;8.43;5.72;;;;;;;3.13;55.95;100930.06;4145847;28;20073;-67
2022/04/03 01:21:19;;;;;;;8.38;4.65;;;;;;;3.12;56.26;100930.00;4172123;28;20064;-66
2022/04/03 01:23:25;;;;;;;9.40;5.07;;;;;;;3.12;55.89;100932.56;4163738;28;20491;-67
2022/04/03 01:25:30;;;;;;;8.70;4.72;;;;;;;2.99;56.75;100928.47;4154920;28;20052;-67
2022/04/03 01:27:34;;;;;;;6.35;4.82;;;;;;;2.95;57.49;100926.56;4164594;28;20041;-66
2022/04/03 01:29:36;;;;;;;10.07;5.38;;;;;;;2.88;57.30;100922.78;4164355;28;20037;-67
2022/04/03 01:31:39;;;;;;;8.57;5.43;;;;;;;2.93;57.01;100928.16;4162916;28;20132;-67
2022/04/03 01:33:42;;;;;;;8.02;4.65;;;;;;;3.18;56.25;100932.00;4164968;28;20051;-66
2022/04/03 01:35:46;;;;;;;9.95;5.78;;;;;;;3.08;56.17;100921.25;4177485;28;20087;-67
2022/04/03 01:37:49;;;;;;;8.95;5.78;;;;;;;2.89;56.95;100924.56;4165055;28;20037;-67
2022/04/03 01:39:51;;;;;;;9.43;5.15;;;;;;;2.89;57.36;100924.56;4164291;28;20033;-67
2022/04/03 01:41:56;;;;;;;10.52;6.00;;;;;;;3.10;56.79;100926.47;4162878;28;20053;-68
2022/04/03 01:43:59;;;;;;;7.53;5.22;;;;;;;2.93;56.85;100923.88;4162067;28;20143;-67
2022/04/03 01:46:02;;;;;;;9.40;5.50;;;;;;;2.92;57.17;100923.81;4163201;28;20482;-67
2022/04/03 01:48:06;;;;;;;7.72;5.15;;;;;;;2.94;56.97;100924.78;4163163;28;20041;-67
2022/04/03 01:50:10;;;;;;;8.52;4.85;;;;;;;2.90;58.06;100925.41;4163430;28;20033;-67
2022/04/03 01:52:12;;;;;;;9.02;5.22;;;;;;;3.07;57.15;100926.31;4164966;28;20044;-67
2022/04/03 01:54:16;;;;;;;7.57;4.88;;;;;;;3.03;56.43;100926.94;4163554;28;20384;-67
2022/04/03 01:56:18;;;;;;;8.27;4.97;;;;;;;2.91;57.56;100922.94;4142420;28;20042;-68
2022/04/03 01:58:23;;;;;;;10.73;5.00;;;;;;;2.93;57.49;100926.44;4164775;28;20124;-67
2022/04/03 02:00:27;;;;;;;7.75;5.15;;;;;;;3.08;56.64;100921.25;4147631;28;20042;-67
2022/04/03 02:02:30;;;;;;;7.47;5.07;;;;;;;2.94;57.05;100923.09;4162273;28;20048;-67
2022/04/03 02:04:34;;;;;;;7.97;4.80;;;;;;;2.95;56.73;100926.56;4155852;28;20037;-66
2022/04/03 02:06:37;;;;;;;8.88;4.82;;;;;;;2.93;56.53;100926.44;4156550;28;20045;-67
2022/04/03 02:08:40;;;;;;;13.20;5.13;;;;;;;2.85;57.79;100929.41;4162425;28;20576;-67
2022/04/03 02:10:43;;;;;;;9.07;5.20;;;;;;;2.87;57.80;100938.97;4146663;28;20077;-67
2022/04/03 02:12:46;;;;;;;7.95;4.75;;;;;;;2.99;57.18;100935.28;4163968;28;20487;-66
2022/04/03 02:14:50;;;;;;;10.05;5.55;;;;;;;2.99;57.65;100933.59;4163348;28;20061;-67
2022/04/03 02:16:55;;;;;;;9.00;5.20;;;;;;;2.93;57.34;100935.84;4178023;28;20505;-67
2022/04/03 02:18:58;;;;;;;6.45;4.80;;;;;;;2.91;57.81;100928.06;4164685;28;20029;-67
2022/04/03 02:21:01;;;;;;;9.38;4.95;;;;;;;3.15;56.43;100932.72;4163697;28;20155;-67
2022/04/03 02:23:05;;;;;;;7.75;4.78;;;;;;;3.05;56.80;100933.03;4163670;28;20077;-67
2022/04/03 02:25:11;;;;;;;8.63;5.45;;;;;;;2.96;57.58;100933.44;4162590;28;20061;-67
2022/04/03 02:27:14;;;;;;;6.70;4.60;;;;;;;3.02;57.16;100930.31;4162722;28;20379;-67
2022/04/03 02:29:17;;;;;;;7.15;4.38;;;;;;;3.10;57.08;100929.91;4162586;28;20495;-67
2022/04/03 02:31:21;;;;;;;7.47;4.85;;;;;;;3.05;57.17;100936.50;4163494;28;20043;-67
2022/04/03 02:33:24;;;;;;;7.53;4.63;;;;;;;2.96;57.84;100938.56;4163120;28;20462;-67
2022/04/03 02:35:27;;;;;;;10.82;4.75;;;;;;;2.93;57.73;100935.84;4178438;28;20628;-66
2022/04/03 02:37:30;;;;;;;8.45;4.97;;;;;;;3.04;57.34;100936.41;4155527;28;20100;-66
2022/04/03 02:39:33;;;;;;;6.55;4.22;;;;;;;3.12;57.23;100937.69;4162534;28;20064;-66
2022/04/03 02:41:36;;;;;;;8.38;5.03;;;;;;;3.13;56.90;100936.91;4163551;28;20041;-67
2022/04/03 02:43:39;;;;;;;9.30;4.97;;;;;;;3.03;57.20;100938.09;4177680;28;20542;-67
2022/04/03 02:45:42;;;;;;;8.25;5.20;;;;;;;2.91;58.04;100940.03;4163029;28;20033;-67
2022/04/03 02:47:52;;;;;;;7.97;4.80;;;;;;;2.93;57.65;100939.28;4164055;28;20503;-67
2022/04/03 02:49:55;;;;;;;8.43;4.80;;;;;;;2.98;57.63;100939.56;4162184;28;20419;-66
2022/04/03 02:51:58;;;;;;;9.05;4.60;;;;;;;2.98;58.21;100944.69;4163434;28;20521;-67
2022/04/03 02:54:01;;;;;;;8.38;5.22;;;;;;;2.93;58.45;100941.00;4163213;28;20049;-67
2022/04/03 02:56:04;;;;;;;7.75;4.72;;;;;;;3.09;57.06;100940.09;4162907;28;20030;-67
2022/04/03 02:58:07;;;;;;;9.18;5.00;;;;;;;2.97;57.88;100943.78;4155808;28;20473;-67
2022/04/03 03:00:14;;;;;;;6.63;4.25;;;;;;;3.16;56.82;100952.47;4161989;28;20076;-66
2022/04/03 03:02:17;;;;;;;9.23;5.07;;;;;;;3.14;57.28;100957.53;4163272;28;20125;-67
2022/04/03 03:04:21;;;;;;;7.05;4.82;;;;;;;3.01;57.16;100950.00;4163107;28;20037;-68
2022/04/03 03:06:24;;;;;;;7.68;5.00;;;;;;;2.98;57.33;100942.13;4163713;28;20120;-67
2022/04/03 03:08:27;;;;;;;6.80;4.25;;;;;;;3.10;57.14;100950.47;4162829;28;20037;-67
2022/04/03 03:10:30;;;;;;;10.20;5.38;;;;;;;3.13;57.20;100954.88;4162942;28;20041;-67
2022/04/03 03:12:33;;;;;;;10.27;5.13;;;;;;;2.90;57.48;100951.09;4159274;28;20048;-67
2022/04/03 03:14:36;;;;;;;7.43;5.22;;;;;;;2.88;57.21;100956.16;4163016;28;20042;-68
2022/04/03 03:16:39;;;;;;;9.60;5.15;;;;;;;2.88;57.65;100950.16;4161884;28;20087;-67
2022/04/03 03:18:43;;;;;;;12.43;5.22;;;;;;;2.85;57.76;100953.44;4163944;28;20049;-67
2022/04/03 03:20:48;;;;;;;9.13;4.80;;;;;;;2.88;56.58;100955.28;4163126;28;20115;-67
2022/04/03 03:22:51;;;;;;;6.72;4.60;;;;;;;2.91;57.07;100952.88;4173362;28;20479;-68
2022/04/03 03:24:54;;;;;;;8.15;5.40;;;;;;;2.82;57.54;100952.38;4160615;28;20030;-67
2022/04/03 03:26:57;;;;;;;8.63;5.53;;;;;;;2.79;58.08;100953.97;4158118;28;20486;-67
2022/04/03 03:29:00;;;;;;;10.15;4.95;;;;;;;2.84;57.51;100956.78;4174871;28;20076;-67
2022/04/03 03:31:03;;;;;;;9.02;5.50;;;;;;;2.93;56.78;100953.81;4163820;28;20125;-67
2022/04/03 03:33:06;;;;;;;9.65;5.30;;;;;;;2.88;57.25;100957.84;4162820;28;20042;-67
2022/04/03 03:35:10;;;;;;;8.85;5.65;;;;;;;2.81;57.94;100955.75;4160964;28;20039;-67
2022/04/03 03:37:15;;;;;;;9.50;5.03;;;;;;;2.77;57.98;100960.72;4162103;28;20260;-68
2022/04/03 03:39:18;;;;;;;7.18;4.93;;;;;;;2.90;57.44;100961.38;4162741;28;20122;-67
2022/04/03 03:41:21;;;;;;;11.18;5.25;;;;;;;2.86;57.19;100954.31;4161969;28;20096;-67
2022/04/03 03:43:23;;;;;;;8.32;5.30;;;;;;;2.85;57.27;100965.38;4162371;28;20042;-68
2022/04/03 03:45:26;;;;;;;8.40;5.00;;;;;;;2.95;56.91;100960.81;4158462;28;20045;-67
2022/04/03 03:47:30;;;;;;;9.00;5.28;;;;;;;2.74;57.64;100960.53;4171731;28;20041;-67
2022/04/03 03:49:33;;;;;;;7.22;5.22;;;;;;;2.92;56.69;100958.09;4163824;28;20045;-67
2022/04/03 03:51:37;;;;;;;7.93;5.35;;;;;;;2.81;56.57;100963.47;4163731;28;20465;-67
2022/04/03 03:53:41;;;;;;;12.45;6.10;;;;;;;2.81;57.48;100966.91;4166311;28;20087;-67
2022/04/03 03:55:44;;;;;;;8.88;5.45;;;;;;;2.76;56.91;100965.75;4164543;28;20068;-67
2022/04/03 03:57:48;;;;;;;9.57;6.38;;;;;;;2.82;56.66;100968.69;4180207;28;20037;-67
2022/04/03 03:59:50;;;;;;;9.63;6.22;;;;;;;2.87;57.39;100971.47;4163389;28;21968;-67
2022/04/03 04:01:53;;;;;;;10.65;5.95;;;;;;;2.90;56.81;100969.06;4165096;28;20128;-67
2022/04/03 04:03:56;;;;;;;11.10;6.22;;;;;;;2.61;57.84;100968.38;4181276;28;20051;-67
2022/04/03 04:05:59;;;;;;;11.20;5.97;;;;;;;2.59;58.36;100976.00;4177974;28;20063;-67
2022/04/03 04:08:02;;;;;;;10.30;6.32;;;;;;;2.70;58.09;100976.59;4165145;28;20042;-67
2022/04/03 04:10:07;;;;;;;9.43;6.07;;;;;;;2.66;58.23;100972.09;4166051;28;20040;-67
2022/04/03 04:12:11;;;;;;;9.45;5.82;;;;;;;2.64;58.36;100976.25;4164870;28;20126;-67
2022/04/03 04:14:14;;;;;;;9.50;6.47;;;;;;;2.63;58.94;100974.50;4164922;28;20128;-67
2022/04/03 04:16:17;;;;;;;9.13;5.82;;;;;;;2.66;58.66;100977.22;4165427;28;20037;-67
2022/04/03 04:18:19;;;;;;;9.40;5.78;;;;;;;2.82;58.28;100988.31;4165666;28;20038;-68
2022/04/03 04:20:23;;;;;;;9.10;5.82;;;;;;;2.83;58.63;100990.09;4159952;28;20042;-67
2022/04/03 04:22:26;;;;;;;10.98;6.72;;;;;;;2.82;57.97;100989.22;4165437;28;20033;-67
2022/04/03 04:24:29;;;;;;;10.70;6.60;;;;;;;2.76;57.31;100994.91;4165694;28;20487;-68
2022/04/03 04:26:37;;;;;;;9.43;6.30;;;;;;;2.78;57.41;100987.28;4157716;28;20038;-67
2022/04/03 04:28:39;;;;;;;11.43;6.15;;;;;;;2.83;57.44;100990.97;4165497;28;20124;-67
2022/04/03 04:30:42;;;;;;;10.75;5.63;;;;;;;2.66;57.56;100989.16;4164969;28;20139;-67
2022/04/03 04:32:46;;;;;;;10.90;6.10;;;;;;;2.66;57.30;100989.16;4177594;28;20032;-67
2022/04/03 04:34:48;;;;;;;11.70;6.25;;;;;;;2.83;56.76;100995.22;4159016;28;20037;-67
2022/04/03 04:36:51;;;;;;;9.65;5.47;;;;;;;2.63;57.32;100992.47;4166171;28;20048;-67
2022/04/03 04:38:55;;;;;;;9.07;5.57;;;;;;;2.57;57.73;100995.56;4164531;28;20597;-67
2022/04/03 04:40:58;;;;;;;9.68;5.70;;;;;;;2.65;57.52;101000.25;4165133;28;20419;-67
2022/04/03 04:43:03;;;;;;;9.32;5.95;;;;;;;2.59;57.81;100998.22;4164151;28;20065;-67
2022/04/03 04:45:09;;;;;;;9.82;6.40;;;;;;;2.71;57.32;101004.03;4162049;28;20491;-67
2022/04/03 04:47:19;;;;;;;10.98;6.20;;;;;;;2.57;58.07;100999.81;4163543;28;20113;-67
2022/04/03 04:49:22;;;;;;;8.10;5.78;;;;;;;2.52;57.94;101007.25;4164219;28;20069;-68
2022/04/03 04:51:25;;;;;;;8.77;6.05;;;;;;;2.46;58.42;101003.47;4164089;28;20034;-68
2022/04/03 04:53:28;;;;;;;9.98;6.28;;;;;;;2.52;57.87;101014.09;4164062;28;20034;-67
2022/04/03 04:55:31;;;;;;;9.48;5.75;;;;;;;2.42;58.62;101010.13;4157439;28;20144;-67
2022/04/03 04:57:34;;;;;;;8.35;5.53;;;;;;;2.48;58.47;101014.72;4164597;28;20124;-67
2022/04/03 04:59:38;;;;;;;10.93;6.07;;;;;;;2.46;58.58;101019.75;4162941;28;20041;-69
2022/04/03 05:01:41;;;;;;;11.30;6.80;;;;;;;2.50;58.20;101016.56;4158004;28;20045;-67
2022/04/03 05:03:44;;;;;;;11.00;5.85;;;;;;;2.57;57.96;101021.25;4165964;28;20037;-69
2022/04/03 05:05:47;;;;;;;9.10;6.13;;;;;;;2.69;57.76;101026.16;4162916;28;20113;-69
2022/04/03 05:07:52;;;;;;;10.18;6.38;;;;;;;2.64;57.36;101025.03;4163087;28;20042;-66
2022/04/03 05:09:55;;;;;;;9.13;6.25;;;;;;;2.48;57.76;101017.28;4165106;28;20038;-69
2022/04/03 05:12:01;;;;;;;10.60;6.03;;;;;;;2.43;58.00;101020.47;4148267;28;20048;-67
2022/04/03 05:14:06;;;;;;;9.07;6.03;;;;;;;2.40;58.15;101025.44;4164661;28;20037;-68
2022/04/03 05:16:11;;;;;;;12.48;6.70;;;;;;;2.42;58.21;101022.94;4163564;28;20060;-69
2022/04/03 05:18:14;;;;;;;8.65;5.68;;;;;;;2.48;57.42;101020.72;4177789;28;20044;-69
2022/04/03 05:20:17;;;;;;;10.63;6.25;;;;;;;2.50;57.66;101025.94;4164859;28;20060;-67
2022/04/03 05:22:23;;;;;;;9.45;6.40;;;;;;;2.35;57.84;101028.53;4164105;28;20087;-67
2022/04/03 05:24:26;;;;;;;9.93;6.05;;;;;;;2.39;58.00;101039.03;4156855;28;21243;-67
2022/04/03 05:26:29;;;;;;;8.13;5.38;;;;;;;2.38;57.79;101037.28;4178006;28;20128;-69
2022/04/03 05:28:32;;;;;;;11.38;5.68;;;;;;;2.55;57.53;101043.34;4163614;28;20068;-68
2022/04/03 05:30:35;;;;;;;11.32;6.00;;;;;;;2.47;57.84;101043.72;4163240;28;20091;-68
2022/04/03 05:32:40;;;;;;;11.15;6.53;;;;;;;2.41;57.75;101042.59;4162190;28;20045;-69
2022/04/03 05:34:43;;;;;;;10.00;6.15;;;;;;;2.30;58.36;101048.78;4158248;28;20073;-67
2022/04/03 05:36:46;;;;;;;11.18;6.45;;;;;;;2.35;57.97;101052.53;4158202;28;20506;-69
2022/04/03 05:38:49;;;;;;;9.40;5.63;;;;;;;2.36;58.11;101051.69;4163733;28;20124;-69
2022/04/03 05:40:52;;;;;;;12.52;6.13;;;;;;;2.28;58.73;101055.53;4162388;28;20064;-67
2022/04/03 05:42:55;;;;;;;9.50;5.95;;;;;;;2.24;58.92;101056.16;4164432;28;20079;-67
2022/04/03 05:44:58;;;;;;;9.73;5.72;;;;;;;2.45;58.02;101059.03;4162909;28;20070;-69
2022/04/03 05:47:01;;;;;;;9.57;6.00;;;;;;;2.28;58.25;101052.97;4164213;28;20033;-67
2022/04/03 05:49:05;;;;;;;10.65;6.10;;;;;;;2.32;58.16;101051.44;4161541;28;20535;-67
2022/04/03 05:51:08;;;;;;;11.43;6.38;;;;;;;2.29;58.43;101052.16;4164335;28;20499;-67
2022/04/03 05:53:12;;;;;;;12.25;7.10;;;;;;;2.23;58.88;101056.94;4162874;28;20037;-66
2022/04/03 05:55:16;;;;;;;12.45;6.50;;;;;;;2.17;59.07;101064.28;4162025;28;20547;-67
2022/04/03 05:57:19;;;;;;;11.38;6.95;;;;;;;2.20;58.94;101056.75;4163326;28;20117;-66
2022/04/03 05:59:22;;;;;;;10.75;6.20;;;;;;;2.30;59.28;101064.19;4157666;28;20033;-66
2022/04/03 06:01:25;;;;;;;10.15;6.95;;;;;;;2.31;59.00;101068.53;4163543;28;20037;-67
2022/04/03 06:03:28;;;;;;;10.35;6.07;;;;;;;2.39;58.84;101067.25;4164654;28;20533;-67
2022/04/03 06:05:34;;;;;;;9.25;7.50;;;;;;;2.33;58.94;101069.50;4174733;28;20448;-67
2022/04/03 06:07:37;;;;;;;9.35;6.95;;;;;;;2.36;58.86;101071.34;4140226;28;20046;-67
2022/04/03 06:09:40;;;;;;;14.07;6.75;;;;;;;2.36;58.95;101072.22;4162293;28;20060;-67
2022/04/03 06:11:43;;;;;;;11.18;6.57;;;;;;;2.40;58.88;101071.59;4164701;28;20049;-67
2022/04/03 06:13:46;;;;;;;11.35;6.55;;;;;;;2.39;58.73;101072.41;4162915;28;20049;-67
2022/04/03 06:15:49;;;;;;;12.35;6.72;;;;;;;2.37;59.31;101081.69;4162214;28;20049;-67
2022/04/03 06:17:52;;;;;;;10.60;7.07;;;;;;;2.53;58.51;101073.19;4164480;28;20204;-67
2022/04/03 06:19:57;;;;;;;9.38;6.15;;;;;;;2.52;57.43;101079.13;4163749;28;20402;-66
2022/04/03 06:22:02;;;;;;;9.98;6.35;;;;;;;2.50;57.36;101079.81;4171678;28;20045;-66
2022/04/03 06:24:06;;;;;;;10.32;7.05;;;;;;;2.40;57.98;101081.00;4144758;28;20037;-67
2022/04/03 06:26:09;;;;;;;9.70;6.70;;;;;;;2.35;57.86;101080.75;4164049;28;20037;-67
2022/04/03 06:28:12;;;;;;;9.57;6.32;;;;;;;2.60;57.09;101084.72;4163220;28;20064;-67
2022/04/03 06:30:16;;;;;;;9.65;6.63;;;;;;;2.46;57.74;101090.72;4162517;28;20513;-66
2022/04/03 06:32:19;;;;;;;10.93;6.55;;;;;;;2.39;58.07;101092.94;4156215;28;20491;-67
2022/04/03 06:34:22;;;;;;;9.40;5.95;;;;;;;2.53;57.69;101088.59;4157212;28;20041;-67
2022/04/03 06:36:25;;;;;;;11.27;6.32;;;;;;;2.46;57.36;101095.88;4165168;28;20044;-66
2022/04/03 06:38:29;;;;;;;15.57;6.60;;;;;;;2.64;57.18;101102.03;4164967;28;20033;-67
2022/04/03 06:40:33;;;;;;;9.93;6.88;;;;;;;2.66;56.01;101100.44;4166064;28;20061;-67
2022/04/03 06:42:36;;;;;;;10.30;5.93;;;;;;;2.73;55.67;101101.66;4157027;28;20124;-67
2022/04/03 06:44:40;;;;;;;9.70;5.90;;;;;;;2.70;55.71;101101.50;4159562;28;20068;-66
2022/04/03 06:46:42;;;;;;;10.18;6.28;;;;;;;2.61;55.73;101101.84;4167714;28;20151;-65
2022/04/03 06:48:45;;;;;;;10.68;6.30;;;;;;;2.77;55.03;101101.03;4158230;28;20034;-65
2022/04/03 06:50:48;;;;;;;9.65;5.85;;;;;;;2.55;55.85;101106.66;4152947;28;20052;-66
2022/04/03 06:52:51;;;;;;;8.80;5.53;;;;;;;2.67;55.79;101120.16;4158426;28;20459;-66
2022/04/03 06:54:56;;;;;;;8.60;5.82;;;;;;;2.66;55.42;101120.97;4159643;28;20455;-65
2022/04/03 06:56:59;;;;;;;8.00;5.63;;;;;;;2.65;55.78;101124.34;4152863;28;20155;-64
2022/04/03 06:59:02;;;;;;;9.13;5.85;;;;;;;2.85;55.21;101119.44;4161112;28;20037;-65
2022/04/03 07:01:05;;;;;;;10.75;6.22;;;;;;;2.75;55.22;101120.63;4167466;28;20064;-65
2022/04/03 07:03:08;;;;;;;9.15;5.72;;;;;;;2.77;55.98;101122.47;4163811;28;20120;-64
2022/04/03 07:05:12;;;;;;;10.63;5.75;;;;;;;2.88;55.19;101127.34;4159354;28;20092;-65
2022/04/03 07:07:21;;;;;;;8.55;5.75;;;;;;;2.83;55.61;101124.47;4161561;28;20033;-64
2022/04/03 07:09:24;;;;;;;9.80;6.28;;;;;;;2.99;55.09;101126.22;4161812;28;20041;-64
2022/04/03 07:11:29;;;;;;;9.80;5.93;;;;;;;3.08;54.28;101131.00;4161394;28;20107;-63
2022/04/03 07:13:36;;;;;;;9.65;6.00;;;;;;;3.01;55.02;101132.34;4160345;28;20048;-64
2022/04/03 07:15:39;;;;;;;10.30;5.97;;;;;;;2.95;55.54;101134.59;4151823;28;20105;-64
2022/04/03 07:17:44;;;;;;;9.95;6.47;;;;;;;3.02;55.53;101138.38;4160432;28;20095;-65
2022/04/03 07:19:47;;;;;;;12.23;5.75;;;;;;;3.14;54.58;101134.78;4159184;28;20049;-64
2022/04/03 07:21:51;;;;;;;12.38;6.93;;;;;;;3.23;54.78;101141.25;4174740;28;20039;-65
2022/04/03 07:23:54;;;;;;;8.55;5.68;;;;;;;3.25;55.57;101142.22;4162839;28;20057;-64
2022/04/03 07:25:56;;;;;;;11.15;7.00;;;;;;;3.32;54.37;101149.44;4159604;28;20993;-65
2022/04/03 07:28:01;;;;;;;11.65;6.95;;;;;;;3.27;54.11;101156.00;4162795;28;20034;-63
2022/04/03 07:30:05;;;;;;;12.30;6.65;;;;;;;3.19;55.22;101144.44;4174899;28;20067;-64
2022/04/03 07:32:13;;;;;;;10.48;7.10;;;;;;;3.41;53.87;101146.50;4162395;28;20060;-64
2022/04/03 07:34:16;;;;;;;10.55;6.25;;;;;;;3.37;54.28;101148.00;4170556;28;20487;-64
2022/04/03 07:36:19;;;;;;;8.50;5.70;;;;;;;3.41;53.86;101147.38;4159956;28;20049;-62
2022/04/03 07:38:22;;;;;;;9.52;6.28;;;;;;;3.32;53.59;101157.16;4160949;28;20037;-62
2022/04/03 07:40:25;;;;;;;13.13;6.22;;;;;;;3.43;53.35;101153.50;4157510;28;20037;-63
2022/04/03 07:42:49;;;;;;;8.82;5.70;;;;;;;3.51;53.19;101158.16;4160490;28;20036;-63
2022/04/03 07:44:53;;;;;;;11.15;6.57;;;;;;;3.46;53.35;101155.31;4158296;28;20038;-64
2022/04/03 07:46:56;;;;;;;10.68;6.15;;;;;;;3.53;53.46;101161.69;4160552;28;20033;-62
2022/04/03 07:49:00;;;;;;;11.18;6.38;;;;;;;3.43;52.59;101156.06;4157188;28;20037;-63
2022/04/03 07:51:03;;;;;;;14.38;6.18;;;;;;;3.62;52.55;101159.59;4162777;28;20043;-62
2022/04/03 07:53:08;;;;;;;11.02;6.22;;;;;;;3.70;52.16;101154.91;4158357;28;20069;-61
2022/04/03 07:55:11;;;;;;;9.77;5.90;;;;;;;3.47;52.83;101163.13;4160648;28;20064;-62
2022/04/03 07:57:14;;;;;;;12.23;6.95;;;;;;;3.53;53.27;101161.69;4161660;28;20061;-62
2022/04/03 07:59:17;;;;;;;9.20;5.43;;;;;;;3.70;52.33;101168.63;4159709;28;20116;-62
2022/04/03 08:01:21;;;;;;;13.55;6.07;;;;;;;3.79;52.21;101161.38;4160547;28;20042;-62
2022/04/03 08:03:25;;;;;;;9.88;5.28;;;;;;;3.89;51.27;101161.91;4152656;28;20045;-62
2022/04/03 08:05:28;;;;;;;8.45;5.72;;;;;;;3.88;51.08;101172.97;4142725;28;20960;-62
2022/04/03 08:07:38;;;;;;;11.30;6.00;;;;;;;3.91;51.52;101170.56;4161591;28;20919;-63
2022/04/03 08:09:41;;;;;;;11.82;6.13;;;;;;;3.85;50.30;101171.13;4160338;28;20043;-62
2022/04/03 08:11:44;;;;;;;8.27;5.25;;;;;;;3.71;51.92;101174.66;4158427;28;20051;-63
2022/04/03 08:13:47;;;;;;;7.90;5.43;;;;;;;3.95;51.04;101182.78;4156589;28;20043;-62
2022/04/03 08:15:50;;;;;;;10.75;5.30;;;;;;;4.10;49.99;101178.44;4173467;28;20041;-64
2022/04/03 08:17:55;;;;;;;11.57;5.70;;;;;;;3.98;49.98;101182.94;4159858;28;20069;-64
2022/04/03 08:19:58;;;;;;;8.20;5.45;;;;;;;4.00;50.01;101181.31;4155753;28;20046;-66
2022/04/03 08:22:01;;;;;;;9.23;4.97;;;;;;;3.88;51.00;101180.69;4160394;28;20517;-64
2022/04/03 08:24:04;;;;;;;8.52;5.22;;;;;;;3.95;51.11;101178.53;4159988;28;20037;-64
2022/04/03 08:26:07;;;;;;;9.30;4.68;;;;;;;3.95;51.37;101178.53;4152286;28;20472;-66
2022/04/03 08:28:10;;;;;;;12.60;5.53;;;;;;;4.17;51.07;101189.94;4148277;28;20129;-66
2022/04/03 08:30:15;;;;;;;9.63;5.10;;;;;;;4.25;49.99;101186.09;4158028;28;20123;-66
2022/04/03 08:32:18;;;;;;;10.02;5.40;;;;;;;4.34;49.91;101180.53;4174145;28;20474;-65
2022/04/03 08:34:22;;;;;;;10.57;5.75;;;;;;;4.32;50.41;101189.84;4160685;28;20041;-66
2022/04/03 08:36:45;;;;;;;10.63;5.80;;;;;;;4.45;49.60;101184.50;4172379;28;20176;-66
2022/04/03 08:38:50;;;;;;;7.35;4.88;;;;;;;4.42;49.57;101180.91;4163987;28;20039;-66
2022/04/03 08:40:53;;;;;;;;;;;;;;;4.55;49.47;101183.28;4159447;28;20507;-65
2022/04/03 08:42:56;;;;;;;9.90;5.53;;;;;;;4.69;48.80;101189.13;4162975;28;19921;-66
2022/04/03 08:44:59;;;;;;;7.07;4.28;;;;;;;4.94;48.27;101180.91;4165808;28;20092;-66
2022/04/03 08:47:06;;;;;;;8.68;5.53;;;;;;;4.96;48.91;101183.56;4166370;28;20121;-66
2022/04/03 08:49:09;;;;;;;8.90;5.32;;;;;;;4.94;49.03;101182.63;4162422;28;20057;-66
2022/04/03 08:51:16;;;;;;;11.88;4.57;;;;;;;5.25;47.21;101185.84;4162295;28;20060;-66
2022/04/03 08:53:23;;;;;;;7.75;4.97;;;;;;;5.35;48.25;101186.28;4162670;28;20038;-66
2022/04/03 08:55:26;;;;;;;8.52;4.85;;;;;;;5.54;48.21;101186.31;4160792;28;20061;-66
2022/04/03 08:57:29;;;;;;;9.60;5.22;;;;;;;5.59;47.68;101187.44;4161593;28;20041;-66
2022/04/03 08:59:32;;;;;;;7.90;4.45;;;;;;;5.39;47.72;101188.22;4158271;28;20048;-66
2022/04/03 09:01:35;;;;;;;6.35;4.22;;;;;;;5.49;48.21;101187.81;4165380;28;20821;-66
2022/04/03 09:03:39;;;;;;;8.75;4.55;;;;;;;5.46;48.83;101191.94;4163517;28;20047;-66
2022/04/03 09:05:43;;;;;;;10.48;5.18;;;;;;;5.43;47.58;101200.41;4162537;28;20041;-65
2022/04/03 09:07:59;;;;;;;6.07;4.63;;;;;;;5.02;48.71;101192.50;4165492;28;20095;-66
2022/04/03 09:10:07;;;;;;;7.85;5.15;;;;;;;4.63;49.47;101201.69;4159555;28;20095;-65
2022/04/03 09:12:11;;;;;;;6.38;4.25;;;;;;;4.62;49.07;101202.50;4163500;28;20044;-66
2022/04/03 09:14:14;;;;;;;12.82;5.05;;;;;;;4.28;50.13;101203.34;4159892;28;20041;-66
2022/04/03 09:16:18;;;;;;;8.18;4.93;;;;;;;4.24;50.42;101207.47;4163244;28;20136;-66
2022/04/03 09:18:20;;;;;;;6.60;4.57;;;;;;;4.24;50.29;101209.16;4163411;28;20569;-65
2022/04/03 09:20:25;;;;;;;9.07;4.65;;;;;;;4.07;50.77;101214.28;4161849;28;20071;-66
2022/04/03 09:22:29;;;;;;;7.63;4.38;;;;;;;3.99;51.00;101200.16;4154999;28;20084;-66
2022/04/03 09:24:36;;;;;;;6.85;4.70;;;;;;;4.04;50.00;101201.28;4162434;28;20061;-66
2022/04/03 09:26:40;;;;;;;6.68;4.60;;;;;;;4.05;50.21;101210.78;4161793;28;20442;-65
2022/04/03 09:28:43;;;;;;;9.10;5.13;;;;;;;3.91;50.44;101206.56;4166755;28;20051;-66
2022/04/03 09:30:49;;;;;;;5.90;4.10;;;;;;;4.05;50.33;101203.06;4179009;28;20498;-66
2022/04/03 09:32:54;;;;;;;8.57;4.50;;;;;;;4.15;49.94;101207.00;4164336;28;20131;-66
2022/04/03 09:34:58;;;;;;;7.10;4.65;;;;;;;4.15;49.54;101202.72;4163451;28;20084;-66
2022/04/03 09:37:07;;;;;;;7.82;4.07;;;;;;;4.13;50.11;101214.66;4164764;28;20045;-66
2022/04/03 09:39:14;;;;;;;6.93;3.92;;;;;;;4.07;50.05;101201.44;4164114;28;20116;-66
2022/04/03 09:41:18;;;;;;;8.35;4.43;;;;;;;4.07;49.70;101206.56;4165264;28;20116;-66